Terminal Aerodrome Forecast
Issued by NWS

Home | Current Version | Previous Version | Text Only | Print | Product List | Glossary On
Versions: 1 2 3 4 5 6 7 8 9 10 11 12 13
709
FTUS46 KSEW 221126
TAFHQM
TAF
KHQM 221126Z 2212/2312 24006KT P6SM VCSH SCT025 BKN035
      TEMPO 2214/2218 4SM -SHRA BR OVC020
     FM222000 23008KT P6SM VCSH SCT020 BKN050
     FM230000 33005KT P6SM SCT030 BKN060
     FM230400 VRB04KT P6SM SCT060 BKN200=

USA.gov is the U.S. government's official web portal to all federal, state and local government web resources and services.